sensor_id;sensor_type;location;lat;lon;timestamp;P1;durP1;ratioP1;P2;durP2;ratioP2
77400;SDS011;66855;45.414;11.082;2023-06-14T00:00:46;6.00;;;5.30;;
77400;SDS011;66855;45.414;11.082;2023-06-14T00:03:15;7.00;;;5.20;;
77400;SDS011;66855;45.414;11.082;2023-06-14T00:05:44;6.90;;;5.30;;
77400;SDS011;66855;45.414;11.082;2023-06-14T00:08:13;11.40;;;5.30;;
77400;SDS011;66855;45.414;11.082;2023-06-14T00:10:40;9.50;;;5.40;;
77400;SDS011;66855;45.414;11.082;2023-06-14T00:13:10;6.50;;;5.30;;
77400;SDS011;66855;45.414;11.082;2023-06-14T00:15:37;7.70;;;5.50;;
77400;SDS011;66855;45.414;11.082;2023-06-14T00:18:04;7.70;;;5.50;;
77400;SDS011;66855;45.414;11.082;2023-06-14T00:20:32;7.10;;;5.10;;
77400;SDS011;66855;45.414;11.082;2023-06-14T00:23:00;9.00;;;5.80;;
77400;SDS011;66855;45.414;11.082;2023-06-14T00:25:27;7.70;;;5.80;;
77400;SDS011;66855;45.414;11.082;2023-06-14T00:27:56;8.40;;;6.40;;
77400;SDS011;66855;45.414;11.082;2023-06-14T00:30:24;8.50;;;6.70;;
77400;SDS011;66855;45.414;11.082;2023-06-14T00:32:52;9.50;;;6.60;;
77400;SDS011;66855;45.414;11.082;2023-06-14T00:35:19;7.90;;;5.50;;
77400;SDS011;66855;45.414;11.082;2023-06-14T00:37:46;6.80;;;5.70;;
77400;SDS011;66855;45.414;11.082;2023-06-14T00:40:12;5.00;;;4.40;;
77400;SDS011;66855;45.414;11.082;2023-06-14T00:42:40;6.60;;;5.00;;
77400;SDS011;66855;45.414;11.082;2023-06-14T00:45:07;6.00;;;4.20;;
77400;SDS011;66855;45.414;11.082;2023-06-14T00:47:35;5.10;;;4.60;;
77400;SDS011;66855;45.414;11.082;2023-06-14T00:50:06;7.30;;;5.00;;
77400;SDS011;66855;45.414;11.082;2023-06-14T00:52:33;5.40;;;4.10;;
77400;SDS011;66855;45.414;11.082;2023-06-14T00:55:01;5.30;;;4.50;;
77400;SDS011;66855;45.414;11.082;2023-06-14T00:57:28;7.30;;;4.90;;
77400;SDS011;66855;45.414;11.082;2023-06-14T00:59:58;5.30;;;3.90;;
77400;SDS011;66855;45.414;11.082;2023-06-14T01:02:25;5.40;;;4.20;;
77400;SDS011;66855;45.414;11.082;2023-06-14T01:04:52;5.80;;;4.60;;
77400;SDS011;66855;45.414;11.082;2023-06-14T01:15:39;7.30;;;5.60;;
77400;SDS011;66855;45.414;11.082;2023-06-14T01:18:08;7.90;;;6.00;;
77400;SDS011;66855;45.414;11.082;2023-06-14T01:20:44;9.00;;;6.40;;
77400;SDS011;66855;45.414;11.082;2023-06-14T01:23:16;8.60;;;7.30;;
77400;SDS011;66855;45.414;11.082;2023-06-14T01:25:44;12.10;;;8.40;;
77400;SDS011;66855;45.414;11.082;2023-06-14T01:28:11;10.80;;;7.60;;
77400;SDS011;66855;45.414;11.082;2023-06-14T01:30:39;12.50;;;6.70;;
77400;SDS011;66855;45.414;11.082;2023-06-14T01:33:20;9.60;;;7.20;;
77400;SDS011;66855;45.414;11.082;2023-06-14T01:35:50;8.70;;;7.10;;
77400;SDS011;66855;45.414;11.082;2023-06-14T01:38:19;13.10;;;8.30;;
77400;SDS011;66855;45.414;11.082;2023-06-14T01:40:48;9.10;;;7.80;;
77400;SDS011;66855;45.414;11.082;2023-06-14T01:43:15;11.80;;;8.40;;
77400;SDS011;66855;45.414;11.082;2023-06-14T01:45:42;15.40;;;8.90;;
77400;SDS011;66855;45.414;11.082;2023-06-14T01:50:39;9.90;;;8.00;;
77400;SDS011;66855;45.414;11.082;2023-06-14T01:53:09;12.20;;;9.10;;
77400;SDS011;66855;45.414;11.082;2023-06-14T01:55:37;11.10;;;8.60;;
77400;SDS011;66855;45.414;11.082;2023-06-14T01:58:06;10.50;;;8.20;;
77400;SDS011;66855;45.414;11.082;2023-06-14T02:00:33;11.30;;;8.30;;
77400;SDS011;66855;45.414;11.082;2023-06-14T02:02:59;10.60;;;8.10;;
77400;SDS011;66855;45.414;11.082;2023-06-14T02:05:26;11.10;;;8.60;;
77400;SDS011;66855;45.414;11.082;2023-06-14T02:07:54;9.60;;;8.30;;
77400;SDS011;66855;45.414;11.082;2023-06-14T02:10:21;10.20;;;8.30;;
77400;SDS011;66855;45.414;11.082;2023-06-14T02:12:48;8.40;;;7.10;;
77400;SDS011;66855;45.414;11.082;2023-06-14T02:15:15;20.90;;;7.30;;
77400;SDS011;66855;45.414;11.082;2023-06-14T02:17:46;8.10;;;7.20;;
77400;SDS011;66855;45.414;11.082;2023-06-14T02:20:18;8.30;;;5.30;;
77400;SDS011;66855;45.414;11.082;2023-06-14T02:22:45;8.50;;;5.80;;
77400;SDS011;66855;45.414;11.082;2023-06-14T02:25:12;7.00;;;5.70;;
77400;SDS011;66855;45.414;11.082;2023-06-14T02:27:40;5.80;;;4.90;;
77400;SDS011;66855;45.414;11.082;2023-06-14T02:30:07;7.40;;;4.60;;
77400;SDS011;66855;45.414;11.082;2023-06-14T02:32:34;4.90;;;4.10;;
77400;SDS011;66855;45.414;11.082;2023-06-14T02:35:02;4.70;;;3.70;;
77400;SDS011;66855;45.414;11.082;2023-06-14T02:37:30;6.70;;;4.00;;
77400;SDS011;66855;45.414;11.082;2023-06-14T02:39:57;4.40;;;3.90;;
77400;SDS011;66855;45.414;11.082;2023-06-14T02:44:52;3.40;;;3.10;;
77400;SDS011;66855;45.414;11.082;2023-06-14T02:47:19;6.20;;;3.10;;
77400;SDS011;66855;45.414;11.082;2023-06-14T02:49:47;3.80;;;3.40;;
77400;SDS011;66855;45.414;11.082;2023-06-14T02:52:14;5.50;;;3.00;;
77400;SDS011;66855;45.414;11.082;2023-06-14T02:54:41;5.50;;;3.60;;
77400;SDS011;66855;45.414;11.082;2023-06-14T02:57:08;4.40;;;3.60;;
77400;SDS011;66855;45.414;11.082;2023-06-14T02:59:35;7.20;;;4.20;;
77400;SDS011;66855;45.414;11.082;2023-06-14T03:02:02;5.60;;;3.80;;
77400;SDS011;66855;45.414;11.082;2023-06-14T03:04:30;6.20;;;3.60;;
77400;SDS011;66855;45.414;11.082;2023-06-14T03:07:01;4.30;;;3.70;;
77400;SDS011;66855;45.414;11.082;2023-06-14T03:09:29;5.50;;;4.50;;
77400;SDS011;66855;45.414;11.082;2023-06-14T03:11:56;5.30;;;4.10;;
77400;SDS011;66855;45.414;11.082;2023-06-14T03:14:23;5.50;;;4.40;;
77400;SDS011;66855;45.414;11.082;2023-06-14T03:16:50;6.30;;;4.50;;
77400;SDS011;66855;45.414;11.082;2023-06-14T03:19:17;5.40;;;4.50;;
77400;SDS011;66855;45.414;11.082;2023-06-14T03:21:44;5.10;;;4.40;;
77400;SDS011;66855;45.414;11.082;2023-06-14T03:24:12;7.10;;;5.00;;
77400;SDS011;66855;45.414;11.082;2023-06-14T03:26:39;9.60;;;4.80;;
77400;SDS011;66855;45.414;11.082;2023-06-14T03:29:07;6.30;;;4.40;;
77400;SDS011;66855;45.414;11.082;2023-06-14T03:31:34;7.40;;;5.10;;
77400;SDS011;66855;45.414;11.082;2023-06-14T03:34:02;7.00;;;4.90;;
77400;SDS011;66855;45.414;11.082;2023-06-14T03:36:29;5.90;;;4.60;;
77400;SDS011;66855;45.414;11.082;2023-06-14T03:38:56;6.80;;;4.30;;
77400;SDS011;66855;45.414;11.082;2023-06-14T03:41:23;9.00;;;5.00;;
77400;SDS011;66855;45.414;11.082;2023-06-14T03:43:50;8.50;;;5.10;;
77400;SDS011;66855;45.414;11.082;2023-06-14T03:46:17;6.00;;;4.90;;
77400;SDS011;66855;45.414;11.082;2023-06-14T03:48:44;6.00;;;4.40;;
77400;SDS011;66855;45.414;11.082;2023-06-14T03:51:12;7.20;;;4.80;;
77400;SDS011;66855;45.414;11.082;2023-06-14T03:53:39;5.10;;;4.40;;
77400;SDS011;66855;45.414;11.082;2023-06-14T03:56:26;4.80;;;4.30;;
77400;SDS011;66855;45.414;11.082;2023-06-14T03:58:53;6.80;;;4.60;;
77400;SDS011;66855;45.414;11.082;2023-06-14T04:03:57;7.00;;;4.40;;
77400;SDS011;66855;45.414;11.082;2023-06-14T04:06:25;8.50;;;5.60;;
77400;SDS011;66855;45.414;11.082;2023-06-14T04:08:59;6.70;;;5.00;;
77400;SDS011;66855;45.414;11.082;2023-06-14T04:11:30;6.90;;;4.80;;
77400;SDS011;66855;45.414;11.082;2023-06-14T04:13:57;7.60;;;5.30;;
77400;SDS011;66855;45.414;11.082;2023-06-14T04:16:25;7.20;;;4.90;;
77400;SDS011;66855;45.414;11.082;2023-06-14T04:18:54;6.50;;;5.50;;
77400;SDS011;66855;45.414;11.082;2023-06-14T04:21:22;9.70;;;5.70;;
77400;SDS011;66855;45.414;11.082;2023-06-14T04:23:52;8.10;;;5.60;;
77400;SDS011;66855;45.414;11.082;2023-06-14T04:26:22;7.90;;;6.20;;
77400;SDS011;66855;45.414;11.082;2023-06-14T04:28:52;10.80;;;6.10;;
77400;SDS011;66855;45.414;11.082;2023-06-14T04:31:23;8.40;;;6.10;;
77400;SDS011;66855;45.414;11.082;2023-06-14T04:33:56;7.80;;;6.00;;
77400;SDS011;66855;45.414;11.082;2023-06-14T04:36:23;8.30;;;6.10;;
77400;SDS011;66855;45.414;11.082;2023-06-14T04:38:50;7.40;;;5.60;;
77400;SDS011;66855;45.414;11.082;2023-06-14T04:41:22;9.40;;;6.60;;
77400;SDS011;66855;45.414;11.082;2023-06-14T04:43:58;10.80;;;6.10;;
77400;SDS011;66855;45.414;11.082;2023-06-14T04:46:30;8.70;;;6.70;;
77400;SDS011;66855;45.414;11.082;2023-06-14T04:48:58;8.40;;;5.80;;
77400;SDS011;66855;45.414;11.082;2023-06-14T04:51:28;9.70;;;6.10;;
77400;SDS011;66855;45.414;11.082;2023-06-14T04:54:00;8.00;;;6.30;;
77400;SDS011;66855;45.414;11.082;2023-06-14T04:56:28;8.30;;;5.70;;
77400;SDS011;66855;45.414;11.082;2023-06-14T04:58:56;9.80;;;5.70;;
77400;SDS011;66855;45.414;11.082;2023-06-14T05:01:23;9.60;;;5.90;;
77400;SDS011;66855;45.414;11.082;2023-06-14T05:03:50;8.10;;;5.40;;
77400;SDS011;66855;45.414;11.082;2023-06-14T05:06:17;8.10;;;5.00;;
77400;SDS011;66855;45.414;11.082;2023-06-14T05:08:45;9.90;;;5.80;;
77400;SDS011;66855;45.414;11.082;2023-06-14T05:11:12;9.80;;;6.30;;
77400;SDS011;66855;45.414;11.082;2023-06-14T05:13:39;8.70;;;5.70;;
77400;SDS011;66855;45.414;11.082;2023-06-14T05:16:07;8.80;;;5.70;;
77400;SDS011;66855;45.414;11.082;2023-06-14T05:18:34;13.30;;;6.70;;
77400;SDS011;66855;45.414;11.082;2023-06-14T05:21:01;13.50;;;6.40;;
77400;SDS011;66855;45.414;11.082;2023-06-14T05:23:28;8.80;;;7.10;;
77400;SDS011;66855;45.414;11.082;2023-06-14T05:25:55;12.80;;;7.20;;
77400;SDS011;66855;45.414;11.082;2023-06-14T05:28:23;10.60;;;5.70;;
77400;SDS011;66855;45.414;11.082;2023-06-14T05:30:50;10.50;;;5.90;;
77400;SDS011;66855;45.414;11.082;2023-06-14T05:33:18;7.60;;;5.40;;
77400;SDS011;66855;45.414;11.082;2023-06-14T05:35:44;4.90;;;4.40;;
77400;SDS011;66855;45.414;11.082;2023-06-14T05:38:11;7.70;;;4.60;;
77400;SDS011;66855;45.414;11.082;2023-06-14T05:40:39;5.20;;;4.10;;
77400;SDS011;66855;45.414;11.082;2023-06-14T05:43:06;5.90;;;3.90;;
77400;SDS011;66855;45.414;11.082;2023-06-14T05:45:32;6.30;;;4.30;;
77400;SDS011;66855;45.414;11.082;2023-06-14T05:47:59;5.90;;;4.00;;
77400;SDS011;66855;45.414;11.082;2023-06-14T05:50:26;6.20;;;4.30;;
77400;SDS011;66855;45.414;11.082;2023-06-14T05:52:53;5.10;;;4.50;;
77400;SDS011;66855;45.414;11.082;2023-06-14T05:55:20;6.40;;;4.50;;
77400;SDS011;66855;45.414;11.082;2023-06-14T05:57:48;5.00;;;4.40;;
77400;SDS011;66855;45.414;11.082;2023-06-14T06:00:15;4.60;;;4.10;;
77400;SDS011;66855;45.414;11.082;2023-06-14T06:02:43;5.10;;;4.10;;
77400;SDS011;66855;45.414;11.082;2023-06-14T06:05:10;5.00;;;4.50;;
77400;SDS011;66855;45.414;11.082;2023-06-14T06:07:42;6.00;;;4.20;;
77400;SDS011;66855;45.414;11.082;2023-06-14T06:10:12;4.90;;;3.90;;
77400;SDS011;66855;45.414;11.082;2023-06-14T06:12:38;4.50;;;4.00;;
77400;SDS011;66855;45.414;11.082;2023-06-14T06:15:05;8.10;;;4.10;;
77400;SDS011;66855;45.414;11.082;2023-06-14T06:17:32;6.20;;;4.00;;
77400;SDS011;66855;45.414;11.082;2023-06-14T06:20:20;6.00;;;3.60;;
77400;SDS011;66855;45.414;11.082;2023-06-14T06:22:48;9.60;;;4.60;;
77400;SDS011;66855;45.414;11.082;2023-06-14T06:25:15;7.20;;;4.00;;
77400;SDS011;66855;45.414;11.082;2023-06-14T06:27:44;6.00;;;4.10;;
77400;SDS011;66855;45.414;11.082;2023-06-14T06:30:11;8.30;;;4.40;;
77400;SDS011;66855;45.414;11.082;2023-06-14T06:32:43;6.50;;;4.40;;
77400;SDS011;66855;45.414;11.082;2023-06-14T06:35:10;6.60;;;4.50;;
77400;SDS011;66855;45.414;11.082;2023-06-14T06:37:38;6.40;;;3.30;;
77400;SDS011;66855;45.414;11.082;2023-06-14T06:40:05;3.70;;;3.20;;
77400;SDS011;66855;45.414;11.082;2023-06-14T06:42:34;5.90;;;3.90;;
77400;SDS011;66855;45.414;11.082;2023-06-14T06:45:03;4.70;;;4.20;;
77400;SDS011;66855;45.414;11.082;2023-06-14T06:47:30;5.00;;;4.00;;
77400;SDS011;66855;45.414;11.082;2023-06-14T06:49:57;4.10;;;3.80;;
77400;SDS011;66855;45.414;11.082;2023-06-14T06:52:24;6.10;;;4.10;;
77400;SDS011;66855;45.414;11.082;2023-06-14T06:54:51;6.50;;;3.60;;
77400;SDS011;66855;45.414;11.082;2023-06-14T06:57:21;4.20;;;3.70;;
77400;SDS011;66855;45.414;11.082;2023-06-14T06:59:51;8.60;;;4.10;;
77400;SDS011;66855;45.414;11.082;2023-06-14T07:02:18;6.00;;;3.30;;
77400;SDS011;66855;45.414;11.082;2023-06-14T07:04:44;5.30;;;4.10;;
77400;SDS011;66855;45.414;11.082;2023-06-14T07:07:12;4.10;;;3.60;;
77400;SDS011;66855;45.414;11.082;2023-06-14T07:09:39;6.00;;;3.80;;
77400;SDS011;66855;45.414;11.082;2023-06-14T07:12:07;6.80;;;4.30;;
77400;SDS011;66855;45.414;11.082;2023-06-14T07:14:34;6.30;;;4.40;;
77400;SDS011;66855;45.414;11.082;2023-06-14T07:17:01;6.60;;;3.90;;
77400;SDS011;66855;45.414;11.082;2023-06-14T07:19:28;6.00;;;4.20;;
77400;SDS011;66855;45.414;11.082;2023-06-14T07:21:54;8.60;;;4.40;;
77400;SDS011;66855;45.414;11.082;2023-06-14T07:24:22;5.80;;;3.50;;
77400;SDS011;66855;45.414;11.082;2023-06-14T07:26:49;4.80;;;3.80;;
77400;SDS011;66855;45.414;11.082;2023-06-14T07:29:17;4.60;;;4.00;;
77400;SDS011;66855;45.414;11.082;2023-06-14T07:31:44;4.20;;;3.80;;
77400;SDS011;66855;45.414;11.082;2023-06-14T07:34:10;3.90;;;3.20;;
77400;SDS011;66855;45.414;11.082;2023-06-14T07:36:38;5.60;;;3.50;;
77400;SDS011;66855;45.414;11.082;2023-06-14T07:39:05;6.50;;;3.50;;
77400;SDS011;66855;45.414;11.082;2023-06-14T07:41:33;6.30;;;3.50;;
77400;SDS011;66855;45.414;11.082;2023-06-14T07:44:00;4.10;;;3.70;;
77400;SDS011;66855;45.414;11.082;2023-06-14T07:46:27;4.60;;;3.40;;
77400;SDS011;66855;45.414;11.082;2023-06-14T07:48:54;3.90;;;3.20;;
77400;SDS011;66855;45.414;11.082;2023-06-14T07:51:22;3.70;;;3.20;;
77400;SDS011;66855;45.414;11.082;2023-06-14T07:53:49;3.70;;;2.70;;
77400;SDS011;66855;45.414;11.082;2023-06-14T07:56:16;3.40;;;6.30;;
77400;SDS011;66855;45.414;11.082;2023-06-14T07:58:43;3.70;;;3.20;;
77400;SDS011;66855;45.414;11.082;2023-06-14T08:01:09;5.00;;;3.50;;
77400;SDS011;66855;45.414;11.082;2023-06-14T08:03:38;4.40;;;3.30;;
77400;SDS011;66855;45.414;11.082;2023-06-14T08:06:06;4.60;;;3.40;;
77400;SDS011;66855;45.414;11.082;2023-06-14T08:08:33;4.90;;;3.20;;
77400;SDS011;66855;45.414;11.082;2023-06-14T08:10:59;6.20;;;3.40;;
77400;SDS011;66855;45.414;11.082;2023-06-14T08:13:26;4.90;;;3.50;;
77400;SDS011;66855;45.414;11.082;2023-06-14T08:15:53;4.00;;;3.30;;
77400;SDS011;66855;45.414;11.082;2023-06-14T08:18:20;4.90;;;3.20;;
77400;SDS011;66855;45.414;11.082;2023-06-14T08:20:48;4.40;;;3.60;;
77400;SDS011;66855;45.414;11.082;2023-06-14T08:23:16;3.30;;;3.00;;
77400;SDS011;66855;45.414;11.082;2023-06-14T08:25:45;4.00;;;3.40;;
77400;SDS011;66855;45.414;11.082;2023-06-14T08:28:12;5.70;;;3.30;;
77400;SDS011;66855;45.414;11.082;2023-06-14T08:30:39;4.30;;;3.40;;
77400;SDS011;66855;45.414;11.082;2023-06-14T08:33:05;4.40;;;3.30;;
77400;SDS011;66855;45.414;11.082;2023-06-14T08:35:43;4.10;;;3.10;;
77400;SDS011;66855;45.414;11.082;2023-06-14T08:38:10;6.20;;;3.50;;
77400;SDS011;66855;45.414;11.082;2023-06-14T08:40:38;5.00;;;3.30;;
77400;SDS011;66855;45.414;11.082;2023-06-14T08:43:06;7.00;;;3.50;;
77400;SDS011;66855;45.414;11.082;2023-06-14T08:45:33;4.00;;;3.30;;
77400;SDS011;66855;45.414;11.082;2023-06-14T08:48:01;4.20;;;3.70;;
77400;SDS011;66855;45.414;11.082;2023-06-14T08:50:28;4.90;;;3.80;;
77400;SDS011;66855;45.414;11.082;2023-06-14T08:53:00;10.20;;;3.80;;
77400;SDS011;66855;45.414;11.082;2023-06-14T08:55:30;4.90;;;3.20;;
77400;SDS011;66855;45.414;11.082;2023-06-14T08:58:02;7.10;;;4.00;;
77400;SDS011;66855;45.414;11.082;2023-06-14T09:00:31;8.10;;;4.10;;
77400;SDS011;66855;45.414;11.082;2023-06-14T09:03:01;8.10;;;4.20;;
77400;SDS011;66855;45.414;11.082;2023-06-14T09:05:29;5.80;;;3.70;;
77400;SDS011;66855;45.414;11.082;2023-06-14T09:07:56;6.00;;;3.60;;
77400;SDS011;66855;45.414;11.082;2023-06-14T09:10:32;8.40;;;5.70;;
77400;SDS011;66855;45.414;11.082;2023-06-14T09:13:04;9.90;;;5.00;;
77400;SDS011;66855;45.414;11.082;2023-06-14T09:15:31;6.30;;;4.10;;
77400;SDS011;66855;45.414;11.082;2023-06-14T09:18:00;5.80;;;3.70;;
77400;SDS011;66855;45.414;11.082;2023-06-14T09:20:29;5.80;;;3.50;;
77400;SDS011;66855;45.414;11.082;2023-06-14T09:22:58;6.60;;;3.70;;
77400;SDS011;66855;45.414;11.082;2023-06-14T09:25:25;6.70;;;3.50;;
77400;SDS011;66855;45.414;11.082;2023-06-14T09:27:56;10.10;;;3.90;;
77400;SDS011;66855;45.414;11.082;2023-06-14T09:30:23;5.50;;;3.50;;
77400;SDS011;66855;45.414;11.082;2023-06-14T09:32:51;4.80;;;3.60;;
77400;SDS011;66855;45.414;11.082;2023-06-14T09:35:18;4.70;;;3.30;;
77400;SDS011;66855;45.414;11.082;2023-06-14T09:37:46;9.00;;;4.00;;
77400;SDS011;66855;45.414;11.082;2023-06-14T09:40:14;4.90;;;3.40;;
77400;SDS011;66855;45.414;11.082;2023-06-14T09:42:47;5.90;;;3.90;;
77400;SDS011;66855;45.414;11.082;2023-06-14T09:45:16;8.20;;;4.50;;
77400;SDS011;66855;45.414;11.082;2023-06-14T09:47:51;6.40;;;4.20;;
77400;SDS011;66855;45.414;11.082;2023-06-14T09:50:32;7.90;;;4.80;;
77400;SDS011;66855;45.414;11.082;2023-06-14T09:53:06;9.20;;;4.00;;
77400;SDS011;66855;45.414;11.082;2023-06-14T09:55:34;5.10;;;4.10;;
77400;SDS011;66855;45.414;11.082;2023-06-14T09:58:06;5.50;;;4.00;;
77400;SDS011;66855;45.414;11.082;2023-06-14T10:00:35;4.70;;;3.60;;
77400;SDS011;66855;45.414;11.082;2023-06-14T10:03:06;5.30;;;3.50;;
77400;SDS011;66855;45.414;11.082;2023-06-14T10:05:53;6.20;;;3.10;;
77400;SDS011;66855;45.414;11.082;2023-06-14T10:08:52;4.50;;;3.30;;
77400;SDS011;66855;45.414;11.082;2023-06-14T10:11:24;4.00;;;3.30;;
77400;SDS011;66855;45.414;11.082;2023-06-14T10:13:52;3.80;;;3.10;;
77400;SDS011;66855;45.414;11.082;2023-06-14T10:24:28;4.10;;;3.10;;
77400;SDS011;66855;45.414;11.082;2023-06-14T10:26:58;6.80;;;3.10;;
77400;SDS011;66855;45.414;11.082;2023-06-14T10:29:26;4.00;;;3.60;;
77400;SDS011;66855;45.414;11.082;2023-06-14T10:31:59;4.70;;;3.10;;
77400;SDS011;66855;45.414;11.082;2023-06-14T10:34:31;3.40;;;2.90;;
77400;SDS011;66855;45.414;11.082;2023-06-14T10:37:04;3.40;;;3.10;;
77400;SDS011;66855;45.414;11.082;2023-06-14T10:42:09;3.70;;;3.00;;
77400;SDS011;66855;45.414;11.082;2023-06-14T10:44:40;3.30;;;3.00;;
77400;SDS011;66855;45.414;11.082;2023-06-14T10:47:29;3.20;;;2.90;;
77400;SDS011;66855;45.414;11.082;2023-06-14T10:52:32;3.30;;;2.80;;
77400;SDS011;66855;45.414;11.082;2023-06-14T10:57:37;3.80;;;3.30;;
77400;SDS011;66855;45.414;11.082;2023-06-14T11:00:23;3.10;;;2.80;;
77400;SDS011;66855;45.414;11.082;2023-06-14T11:08:26;3.90;;;3.40;;
77400;SDS011;66855;45.414;11.082;2023-06-14T11:11:01;3.10;;;2.60;;
77400;SDS011;66855;45.414;11.082;2023-06-14T11:13:47;4.00;;;3.20;;
77400;SDS011;66855;45.414;11.082;2023-06-14T11:16:19;4.40;;;3.20;;
77400;SDS011;66855;45.414;11.082;2023-06-14T11:21:57;5.10;;;3.00;;
77400;SDS011;66855;45.414;11.082;2023-06-14T11:24:24;3.40;;;3.10;;
77400;SDS011;66855;45.414;11.082;2023-06-14T11:26:51;3.30;;;3.00;;
77400;SDS011;66855;45.414;11.082;2023-06-14T11:29:19;3.70;;;3.20;;
77400;SDS011;66855;45.414;11.082;2023-06-14T11:31:46;4.50;;;3.40;;
77400;SDS011;66855;45.414;11.082;2023-06-14T11:34:13;3.20;;;2.80;;
77400;SDS011;66855;45.414;11.082;2023-06-14T11:36:40;5.70;;;3.50;;
77400;SDS011;66855;45.414;11.082;2023-06-14T11:39:08;3.60;;;3.10;;
77400;SDS011;66855;45.414;11.082;2023-06-14T11:41:39;3.90;;;2.90;;
77400;SDS011;66855;45.414;11.082;2023-06-14T11:44:07;5.10;;;3.10;;
77400;SDS011;66855;45.414;11.082;2023-06-14T11:46:34;4.00;;;3.10;;
77400;SDS011;66855;45.414;11.082;2023-06-14T11:49:02;3.70;;;3.30;;
77400;SDS011;66855;45.414;11.082;2023-06-14T11:51:34;4.50;;;2.80;;
77400;SDS011;66855;45.414;11.082;2023-06-14T11:54:01;3.90;;;3.50;;
77400;SDS011;66855;45.414;11.082;2023-06-14T11:56:30;5.00;;;3.30;;
77400;SDS011;66855;45.414;11.082;2023-06-14T11:58:58;4.00;;;2.80;;
77400;SDS011;66855;45.414;11.082;2023-06-14T12:01:25;4.70;;;3.70;;
77400;SDS011;66855;45.414;11.082;2023-06-14T12:03:53;5.30;;;4.10;;
77400;SDS011;66855;45.414;11.082;2023-06-14T12:06:28;5.50;;;3.60;;
77400;SDS011;66855;45.414;11.082;2023-06-14T12:08:59;4.10;;;3.40;;
77400;SDS011;66855;45.414;11.082;2023-06-14T12:11:34;5.50;;;3.60;;
77400;SDS011;66855;45.414;11.082;2023-06-14T12:16:30;3.50;;;2.90;;
77400;SDS011;66855;45.414;11.082;2023-06-14T12:19:12;4.20;;;3.50;;
77400;SDS011;66855;45.414;11.082;2023-06-14T12:21:41;5.60;;;3.50;;
77400;SDS011;66855;45.414;11.082;2023-06-14T12:24:08;5.70;;;4.00;;
77400;SDS011;66855;45.414;11.082;2023-06-14T12:26:39;6.80;;;3.90;;
77400;SDS011;66855;45.414;11.082;2023-06-14T12:31:34;7.00;;;5.40;;
77400;SDS011;66855;45.414;11.082;2023-06-14T12:34:01;6.80;;;4.40;;
77400;SDS011;66855;45.414;11.082;2023-06-14T12:36:28;6.60;;;4.10;;
77400;SDS011;66855;45.414;11.082;2023-06-14T12:38:55;4.10;;;3.70;;
77400;SDS011;66855;45.414;11.082;2023-06-14T12:41:22;5.10;;;3.20;;
77400;SDS011;66855;45.414;11.082;2023-06-14T12:43:49;4.70;;;2.80;;
77400;SDS011;66855;45.414;11.082;2023-06-14T12:46:17;3.90;;;3.00;;
77400;SDS011;66855;45.414;11.082;2023-06-14T12:51:10;5.00;;;3.70;;
77400;SDS011;66855;45.414;11.082;2023-06-14T12:53:37;4.20;;;3.80;;
77400;SDS011;66855;45.414;11.082;2023-06-14T12:56:04;6.50;;;5.60;;
77400;SDS011;66855;45.414;11.082;2023-06-14T12:58:31;6.10;;;3.70;;
77400;SDS011;66855;45.414;11.082;2023-06-14T13:00:57;5.30;;;3.60;;
77400;SDS011;66855;45.414;11.082;2023-06-14T13:03:24;5.70;;;3.70;;
77400;SDS011;66855;45.414;11.082;2023-06-14T13:05:51;4.50;;;3.30;;
77400;SDS011;66855;45.414;11.082;2023-06-14T13:08:18;3.40;;;3.10;;
77400;SDS011;66855;45.414;11.082;2023-06-14T13:10:50;3.70;;;3.10;;
77400;SDS011;66855;45.414;11.082;2023-06-14T13:13:17;7.10;;;3.10;;
77400;SDS011;66855;45.414;11.082;2023-06-14T13:15:44;5.00;;;3.10;;
77400;SDS011;66855;45.414;11.082;2023-06-14T13:20:41;6.10;;;3.60;;
77400;SDS011;66855;45.414;11.082;2023-06-14T13:23:08;4.20;;;3.80;;
77400;SDS011;66855;45.414;11.082;2023-06-14T13:25:36;4.60;;;3.40;;
77400;SDS011;66855;45.414;11.082;2023-06-14T13:30:31;4.70;;;3.50;;
77400;SDS011;66855;45.414;11.082;2023-06-14T13:32:59;6.10;;;3.20;;
77400;SDS011;66855;45.414;11.082;2023-06-14T13:35:26;4.40;;;3.50;;
77400;SDS011;66855;45.414;11.082;2023-06-14T13:37:53;4.40;;;3.40;;
77400;SDS011;66855;45.414;11.082;2023-06-14T13:40:20;7.00;;;3.50;;
77400;SDS011;66855;45.414;11.082;2023-06-14T13:42:47;5.50;;;3.50;;
77400;SDS011;66855;45.414;11.082;2023-06-14T13:45:14;4.10;;;3.70;;
77400;SDS011;66855;45.414;11.082;2023-06-14T13:47:41;4.20;;;3.20;;
77400;SDS011;66855;45.414;11.082;2023-06-14T13:50:08;4.60;;;3.70;;
77400;SDS011;66855;45.414;11.082;2023-06-14T13:52:36;5.20;;;3.50;;
77400;SDS011;66855;45.414;11.082;2023-06-14T13:55:03;4.70;;;3.30;;
77400;SDS011;66855;45.414;11.082;2023-06-14T13:57:31;6.40;;;3.80;;
77400;SDS011;66855;45.414;11.082;2023-06-14T13:59:59;9.00;;;3.70;;
77400;SDS011;66855;45.414;11.082;2023-06-14T14:02:37;3.60;;;3.30;;
77400;SDS011;66855;45.414;11.082;2023-06-14T14:05:06;4.60;;;3.50;;
77400;SDS011;66855;45.414;11.082;2023-06-14T14:07:34;6.70;;;3.80;;
77400;SDS011;66855;45.414;11.082;2023-06-14T14:10:03;4.70;;;3.40;;
77400;SDS011;66855;45.414;11.082;2023-06-14T14:12:30;3.60;;;3.00;;
77400;SDS011;66855;45.414;11.082;2023-06-14T14:14:56;4.10;;;3.10;;
77400;SDS011;66855;45.414;11.082;2023-06-14T14:17:24;4.90;;;3.80;;
77400;SDS011;66855;45.414;11.082;2023-06-14T14:19:50;3.90;;;3.20;;
77400;SDS011;66855;45.414;11.082;2023-06-14T14:22:18;6.40;;;4.00;;
77400;SDS011;66855;45.414;11.082;2023-06-14T14:24:45;5.30;;;3.80;;
77400;SDS011;66855;45.414;11.082;2023-06-14T14:27:12;6.30;;;4.30;;
77400;SDS011;66855;45.414;11.082;2023-06-14T14:29:38;4.40;;;4.00;;
77400;SDS011;66855;45.414;11.082;2023-06-14T14:32:05;4.00;;;3.50;;
77400;SDS011;66855;45.414;11.082;2023-06-14T14:34:33;4.50;;;3.60;;
77400;SDS011;66855;45.414;11.082;2023-06-14T14:37:01;3.70;;;3.30;;
77400;SDS011;66855;45.414;11.082;2023-06-14T14:39:28;5.60;;;3.40;;
77400;SDS011;66855;45.414;11.082;2023-06-14T14:41:56;7.10;;;3.60;;
77400;SDS011;66855;45.414;11.082;2023-06-14T14:44:23;2.90;;;2.70;;
77400;SDS011;66855;45.414;11.082;2023-06-14T14:46:50;3.80;;;3.00;;
77400;SDS011;66855;45.414;11.082;2023-06-14T14:49:17;4.60;;;3.30;;
77400;SDS011;66855;45.414;11.082;2023-06-14T14:51:43;3.70;;;3.20;;
77400;SDS011;66855;45.414;11.082;2023-06-14T14:54:10;6.50;;;3.70;;
77400;SDS011;66855;45.414;11.082;2023-06-14T14:56:37;9.00;;;4.10;;
77400;SDS011;66855;45.414;11.082;2023-06-14T14:59:04;4.80;;;3.40;;
77400;SDS011;66855;45.414;11.082;2023-06-14T15:01:31;4.00;;;3.50;;
77400;SDS011;66855;45.414;11.082;2023-06-14T15:03:58;3.20;;;3.00;;
77400;SDS011;66855;45.414;11.082;2023-06-14T15:06:26;4.60;;;3.30;;
77400;SDS011;66855;45.414;11.082;2023-06-14T15:08:52;3.50;;;3.20;;
77400;SDS011;66855;45.414;11.082;2023-06-14T15:11:19;5.40;;;3.30;;
77400;SDS011;66855;45.414;11.082;2023-06-14T15:13:46;3.20;;;2.90;;
77400;SDS011;66855;45.414;11.082;2023-06-14T15:16:14;3.40;;;3.10;;
77400;SDS011;66855;45.414;11.082;2023-06-14T15:18:40;3.40;;;3.10;;
77400;SDS011;66855;45.414;11.082;2023-06-14T15:21:07;6.80;;;3.30;;
77400;SDS011;66855;45.414;11.082;2023-06-14T15:23:34;5.50;;;3.40;;
77400;SDS011;66855;45.414;11.082;2023-06-14T15:26:01;3.90;;;3.50;;
77400;SDS011;66855;45.414;11.082;2023-06-14T15:28:28;6.70;;;3.80;;
77400;SDS011;66855;45.414;11.082;2023-06-14T15:30:55;6.00;;;2.80;;
77400;SDS011;66855;45.414;11.082;2023-06-14T15:33:23;5.30;;;2.90;;